createdAt,value
2018-02-09T00:00:06.631Z,101212.22
2018-02-09T00:02:34.974Z,101209.64
2018-02-09T00:05:02.869Z,101206.87
2018-02-09T00:07:30.760Z,101207.95
2018-02-09T00:09:59.075Z,101208.54
2018-02-09T00:12:26.978Z,101203.02
2018-02-09T00:14:54.757Z,101206.58
2018-02-09T00:17:22.761Z,101207.41
2018-02-09T00:19:51.502Z,101203.12
2018-02-09T00:22:20.977Z,101201.51
2018-02-09T00:24:48.726Z,101200.88
2018-02-09T00:27:16.844Z,101195.49
2018-02-09T00:29:44.712Z,101201.09
2018-02-09T00:32:12.575Z,101193.89
2018-02-09T00:34:40.666Z,101198.55
2018-02-09T00:37:09.246Z,101192.97
2018-02-09T00:39:36.978Z,101197.75
2018-02-09T00:42:04.768Z,101191.20
2018-02-09T00:44:32.622Z,101194.97
2018-02-09T00:47:00.406Z,101190.86
2018-02-09T00:49:28.143Z,101183.80
2018-02-09T00:51:55.866Z,101183.41
2018-02-09T00:54:23.595Z,101180.97
2018-02-09T00:56:51.342Z,101177.53
2018-02-09T00:59:19.126Z,101175.65
2018-02-09T01:01:46.812Z,101176.30
2018-02-09T01:04:14.531Z,101174.73
2018-02-09T01:06:42.361Z,101176.28
2018-02-09T01:09:10.065Z,101176.55
2018-02-09T01:11:37.793Z,101176.25
2018-02-09T01:14:05.509Z,101171.77
2018-02-09T01:16:33.364Z,101167.30
2018-02-09T01:19:01.163Z,101164.84
2018-02-09T01:21:29.041Z,101169.14
2018-02-09T01:23:56.966Z,101162.75
2018-02-09T01:26:24.965Z,101162.41
2018-02-09T01:28:52.934Z,101160.82
2018-02-09T01:31:21.007Z,101163.36
2018-02-09T01:33:48.721Z,101167.69
2018-02-09T01:36:16.490Z,101160.13
2018-02-09T01:38:44.171Z,101160.51
2018-02-09T01:41:11.901Z,101155.62
2018-02-09T01:43:39.612Z,101155.27
2018-02-09T01:46:07.605Z,101147.89
2018-02-09T01:48:35.326Z,101143.42
2018-02-09T01:51:03.042Z,101141.16
2018-02-09T01:53:30.714Z,101140.89
2018-02-09T01:55:58.447Z,101143.34
2018-02-09T01:58:26.135Z,101147.73
2018-02-09T02:00:53.833Z,101147.88
2018-02-09T02:03:21.517Z,101143.73
2018-02-09T02:05:49.271Z,101143.16
2018-02-09T02:08:16.960Z,101137.84
2018-02-09T02:10:44.779Z,101138.84
2018-02-09T02:13:12.469Z,101137.84
2018-02-09T02:15:40.163Z,101138.11
2018-02-09T02:18:07.876Z,101139.84
2018-02-09T02:20:35.681Z,101136.06
2018-02-09T02:23:03.362Z,101133.94
2018-02-09T02:25:31.208Z,101134.89
2018-02-09T02:27:58.903Z,101143.43
2018-02-09T02:30:26.613Z,101132.77
2018-02-09T02:32:54.363Z,101132.27
2018-02-09T02:35:22.090Z,101128.14
2018-02-09T02:37:49.815Z,101126.90
2018-02-09T02:40:17.686Z,101120.84
2018-02-09T02:42:45.468Z,101118.70
2018-02-09T02:45:13.441Z,101115.14
2018-02-09T02:47:41.114Z,101101.19
2018-02-09T02:50:08.886Z,101102.36
2018-02-09T02:52:36.569Z,101101.04
2018-02-09T02:55:04.285Z,101100.97
2018-02-09T02:57:31.961Z,101099.89
2018-02-09T02:59:59.687Z,101091.38
2018-02-09T03:02:27.376Z,101091.23
2018-02-09T03:04:55.131Z,101082.02
2018-02-09T03:07:22.823Z,101080.43
2018-02-09T03:09:50.561Z,101072.31
2018-02-09T03:12:18.336Z,101066.59
2018-02-09T03:14:46.006Z,101070.03
2018-02-09T03:17:13.714Z,101063.70
2018-02-09T03:19:41.390Z,101062.72
2018-02-09T03:22:09.125Z,101060.12
2018-02-09T03:24:36.998Z,101053.48
2018-02-09T03:27:04.710Z,101048.48
2018-02-09T03:29:32.410Z,101048.81
2018-02-09T03:32:00.110Z,101044.66
2018-02-09T03:34:27.876Z,101039.16
2018-02-09T03:36:55.603Z,101035.31
2018-02-09T03:39:23.302Z,101034.25
2018-02-09T03:41:50.984Z,101040.86
2018-02-09T03:44:18.808Z,101033.87
2018-02-09T03:46:46.482Z,101041.59
2018-02-09T03:49:14.295Z,101040.05
2018-02-09T03:51:41.991Z,101033.37
2018-02-09T03:54:09.697Z,101038.78
2018-02-09T03:56:37.379Z,101038.55
2018-02-09T03:59:05.254Z,101039.23
2018-02-09T04:01:32.938Z,101031.95
2018-02-09T04:04:00.757Z,101029.69
2018-02-09T04:06:28.466Z,101029.05
2018-02-09T04:08:56.274Z,101025.39
2018-02-09T04:11:24.070Z,101025.86
2018-02-09T04:13:51.777Z,101022.63
2018-02-09T04:16:19.632Z,101024.11
2018-02-09T04:18:47.377Z,101016.48
2018-02-09T04:21:15.054Z,101016.81
2018-02-09T04:23:42.891Z,101014.48
2018-02-09T04:26:10.627Z,101013.84
2018-02-09T04:28:38.441Z,101015.61
2018-02-09T04:31:06.209Z,101024.05
2018-02-09T04:33:33.925Z,101018.67
2018-02-09T04:36:01.630Z,101020.81
2018-02-09T04:38:29.310Z,101022.44
2018-02-09T04:40:57.052Z,101024.50
2018-02-09T04:43:24.827Z,101024.13
2018-02-09T04:45:52.553Z,101012.27
2018-02-09T04:48:20.246Z,101016.16
2018-02-09T04:50:48.048Z,101012.66
2018-02-09T04:53:15.726Z,101012.09
2018-02-09T04:55:43.558Z,101006.48
2018-02-09T04:58:11.290Z,101009.36
2018-02-09T05:00:38.987Z,101005.52
2018-02-09T05:03:06.668Z,101002.89
2018-02-09T05:05:35.322Z,101002.56
2018-02-09T05:08:03.038Z,100995.91
2018-02-09T05:10:30.789Z,100997.91
2018-02-09T05:12:58.483Z,100992.86
2018-02-09T05:15:26.311Z,100999.05
2018-02-09T05:17:53.997Z,100989.06
2018-02-09T05:20:21.771Z,100987.88
2018-02-09T05:22:49.525Z,100987.08
2018-02-09T05:25:17.251Z,100981.13
2018-02-09T05:27:44.927Z,100983.08
2018-02-09T05:30:12.763Z,100976.02
2018-02-09T05:32:40.505Z,100969.16
2018-02-09T05:35:08.383Z,100970.73
2018-02-09T05:37:36.063Z,100966.27
2018-02-09T05:40:03.767Z,100966.37
2018-02-09T05:42:31.471Z,100965.08
2018-02-09T05:44:59.195Z,100969.81
2018-02-09T05:47:26.870Z,100966.95
2018-02-09T05:49:54.593Z,100968.73
2018-02-09T05:52:22.274Z,100964.20
2018-02-09T05:54:49.969Z,100965.47
2018-02-09T05:57:17.673Z,100960.34
2018-02-09T05:59:45.418Z,100960.12
2018-02-09T06:02:13.178Z,100964.99
2018-02-09T06:04:40.982Z,100958.31
2018-02-09T06:07:08.688Z,100952.09
2018-02-09T06:09:36.406Z,100953.22
2018-02-09T06:12:04.099Z,100948.45
2018-02-09T06:14:31.810Z,100953.29
2018-02-09T06:16:59.528Z,100955.89
2018-02-09T06:19:27.243Z,100946.00
2018-02-09T06:21:54.943Z,100948.69
2018-02-09T06:24:22.613Z,100940.77
2018-02-09T06:26:50.317Z,100942.72
2018-02-09T06:29:18.085Z,100936.61
2018-02-09T06:31:45.766Z,100937.48
2018-02-09T06:34:13.474Z,100935.78
2018-02-09T06:36:41.146Z,100931.77
2018-02-09T06:39:08.906Z,100932.92
2018-02-09T06:41:36.600Z,100934.45
2018-02-09T06:44:04.281Z,100935.34
2018-02-09T06:46:32.130Z,100940.39
2018-02-09T06:48:59.795Z,100937.88
2018-02-09T06:51:27.537Z,100933.02
2018-02-09T06:53:55.232Z,100929.91
2018-02-09T06:56:22.968Z,100934.36
2018-02-09T06:58:50.655Z,100931.66
2018-02-09T07:01:18.512Z,100938.55
2018-02-09T07:03:46.201Z,100934.15
2018-02-09T07:06:14.026Z,100934.72
2018-02-09T07:08:41.810Z,100929.69
2018-02-09T07:11:09.506Z,100925.23
2018-02-09T07:13:37.232Z,100917.24
2018-02-09T07:16:04.935Z,100923.30
2018-02-09T07:18:32.720Z,100923.44
2018-02-09T07:21:00.494Z,100923.27
2018-02-09T07:23:28.188Z,100912.56
2018-02-09T07:25:55.977Z,100918.98
2018-02-09T07:28:23.664Z,100911.43
2018-02-09T07:30:51.398Z,100917.96
2018-02-09T07:33:19.065Z,100918.11
2018-02-09T07:35:46.851Z,100914.23
2018-02-09T07:38:14.534Z,100907.91
2018-02-09T07:40:42.422Z,100911.22
2018-02-09T07:43:10.099Z,100913.89
2018-02-09T07:45:37.802Z,100915.67
2018-02-09T07:48:05.504Z,100916.89
2018-02-09T07:50:33.352Z,100909.98
2018-02-09T07:53:01.028Z,100910.63
2018-02-09T07:55:28.734Z,100913.94
2018-02-09T07:57:56.415Z,100908.77
2018-02-09T08:00:24.150Z,100905.84
2018-02-09T08:02:51.982Z,100904.69
2018-02-09T08:05:19.795Z,100906.09
2018-02-09T08:07:47.589Z,100904.33
2018-02-09T08:10:15.324Z,100904.56
2018-02-09T08:12:43.008Z,100903.62
2018-02-09T08:15:10.793Z,100901.17
2018-02-09T08:17:38.479Z,100895.72
2018-02-09T08:20:06.206Z,100890.72
2018-02-09T08:22:33.923Z,100889.67
2018-02-09T08:25:01.741Z,100884.22
2018-02-09T08:27:29.574Z,100882.50
2018-02-09T08:29:57.313Z,100888.13
2018-02-09T08:32:25.006Z,100885.50
2018-02-09T08:34:52.741Z,100879.14
2018-02-09T08:37:20.483Z,100889.09
2018-02-09T08:39:48.197Z,100890.59
2018-02-09T08:42:15.967Z,100889.09
2018-02-09T08:44:43.667Z,100890.38
2018-02-09T08:47:11.354Z,100881.31
2018-02-09T08:49:39.049Z,100885.55
2018-02-09T08:52:06.823Z,100881.41
2018-02-09T08:54:34.535Z,100882.92
2018-02-09T08:57:02.211Z,100884.32
2018-02-09T08:59:29.905Z,100886.78
2018-02-09T09:01:57.579Z,100879.11
2018-02-09T09:04:25.295Z,100884.23
2018-02-09T09:06:52.982Z,100871.07
2018-02-09T09:09:20.681Z,100876.55
2018-02-09T09:11:48.355Z,100873.90
2018-02-09T09:14:16.078Z,100867.80
2018-02-09T09:16:43.742Z,100868.28
2018-02-09T09:19:11.450Z,100868.02
2018-02-09T09:21:39.134Z,100862.01
2018-02-09T09:24:06.850Z,100856.29
2018-02-09T09:26:34.533Z,100848.45
2018-02-09T09:29:02.238Z,100854.58
2018-02-09T09:31:30.004Z,100848.05
2018-02-09T09:33:57.777Z,100846.38
2018-02-09T09:36:25.504Z,100845.02
2018-02-09T09:38:53.262Z,100841.63
2018-02-09T09:41:20.945Z,100828.96
2018-02-09T09:43:48.676Z,100834.28
2018-02-09T09:46:16.407Z,100830.92
2018-02-09T09:48:44.175Z,100827.97
2018-02-09T09:51:11.926Z,100823.64
2018-02-09T09:53:39.676Z,100818.77
2018-02-09T09:56:07.432Z,100818.12
2018-02-09T09:58:35.146Z,100819.09
2018-02-09T10:01:08.396Z,100814.61
2018-02-09T10:03:36.097Z,100808.55
2018-02-09T10:06:03.828Z,100808.67
2018-02-09T10:08:31.525Z,100804.86
2018-02-09T10:10:59.230Z,100807.88
2018-02-09T10:13:27.115Z,100812.14
2018-02-09T10:15:54.933Z,100807.38
2018-02-09T10:18:22.613Z,100799.81
2018-02-09T10:20:50.431Z,100812.44
2018-02-09T10:23:18.123Z,100802.92
2018-02-09T10:25:46.534Z,100810.02
2018-02-09T10:28:14.257Z,100803.37
2018-02-09T10:30:41.946Z,100804.55
2018-02-09T10:33:09.705Z,100807.41
2018-02-09T10:35:40.436Z,100806.11
2018-02-09T10:38:08.340Z,100806.91
2018-02-09T10:40:36.034Z,100809.28
2018-02-09T10:43:05.649Z,100803.56
2018-02-09T10:45:33.381Z,100793.30
2018-02-09T10:48:01.184Z,100795.81
2018-02-09T10:50:29.011Z,100785.38
2018-02-09T10:52:56.778Z,100787.89
2018-02-09T10:55:24.460Z,100789.02
2018-02-09T10:57:52.130Z,100778.98
2018-02-09T11:00:25.594Z,100778.72
2018-02-09T11:02:53.286Z,100786.47
2018-02-09T11:05:21.026Z,100777.41
2018-02-09T11:07:48.916Z,100781.19
2018-02-09T11:10:23.037Z,100772.30
2018-02-09T11:12:50.995Z,100766.31
2018-02-09T11:15:18.659Z,100769.44
2018-02-09T11:17:48.455Z,100763.57
2018-02-09T11:20:17.093Z,100770.28
2018-02-09T11:22:44.850Z,100759.92
2018-02-09T11:25:12.609Z,100760.72
2018-02-09T11:27:40.307Z,100756.66
2018-02-09T11:30:08.034Z,100756.44
2018-02-09T11:32:36.813Z,100754.48
2018-02-09T11:35:04.495Z,100745.44
2018-02-09T11:37:32.439Z,100744.45
2018-02-09T11:40:00.156Z,100744.39
2018-02-09T11:42:28.604Z,100746.20
2018-02-09T11:44:56.320Z,100744.29
2018-02-09T11:47:26.457Z,100730.17
2018-02-09T11:49:54.199Z,100738.45
2018-02-09T11:52:21.903Z,100738.65
2018-02-09T11:54:49.708Z,100735.63
2018-02-09T11:57:17.429Z,100740.70
2018-02-09T11:59:45.154Z,100741.23
2018-02-09T12:02:12.842Z,100744.12
2018-02-09T12:04:40.645Z,100735.37
2018-02-09T12:07:08.386Z,100735.72
2018-02-09T12:09:36.089Z,100729.31
2018-02-09T12:12:03.754Z,100728.47
2018-02-09T12:14:31.462Z,100732.02
2018-02-09T12:16:59.130Z,100730.02
2018-02-09T12:19:26.889Z,100722.48
2018-02-09T12:21:54.570Z,100724.69
2018-02-09T12:24:22.298Z,100722.33
2018-02-09T12:26:51.123Z,100720.43
2018-02-09T12:29:18.837Z,100727.09
2018-02-09T12:31:46.517Z,100720.64
2018-02-09T12:34:14.225Z,100720.06
2018-02-09T12:36:41.899Z,100715.77
2018-02-09T12:39:09.637Z,100711.72
2018-02-09T12:41:37.307Z,100705.87
2018-02-09T12:44:05.118Z,100704.00
2018-02-09T12:46:32.895Z,100705.06
2018-02-09T12:49:00.641Z,100701.56
2018-02-09T12:51:28.397Z,100693.92
2018-02-09T12:53:56.058Z,100693.31
2018-02-09T12:56:23.779Z,100702.89
2018-02-09T12:58:51.482Z,100688.02
2018-02-09T13:01:19.192Z,100685.59
2018-02-09T13:03:46.884Z,100685.02
2018-02-09T13:06:14.557Z,100689.33
2018-02-09T13:08:42.188Z,100682.43
2018-02-09T13:11:09.785Z,100680.30
2018-02-09T13:13:37.434Z,100674.20
2018-02-09T13:16:05.030Z,100675.80
2018-02-09T13:18:44.358Z,100667.14
2018-02-09T13:21:12.186Z,100663.75
2018-02-09T13:23:51.681Z,100662.59
2018-02-09T13:26:19.381Z,100661.70
2018-02-09T13:28:57.811Z,100665.78
2018-02-09T13:31:25.503Z,100669.12
2018-02-09T13:33:53.186Z,100663.12
2018-02-09T13:36:32.317Z,100661.64
2018-02-09T13:38:59.955Z,100666.15
2018-02-09T13:41:27.650Z,100656.92
2018-02-09T13:43:55.363Z,100658.03
2018-02-09T13:46:23.092Z,100660.00
2018-02-09T13:48:50.820Z,100657.95
2018-02-09T13:51:18.507Z,100655.94
2018-02-09T13:53:46.231Z,100656.39
2018-02-09T13:56:13.897Z,100653.83
2018-02-09T13:58:41.625Z,100654.41
2018-02-09T14:01:10.722Z,100653.48
2018-02-09T14:03:38.442Z,100644.11
2018-02-09T14:06:06.126Z,100654.11
2018-02-09T14:08:33.830Z,100639.23
2018-02-09T14:11:01.555Z,100637.72
2018-02-09T14:13:29.305Z,100644.33
2018-02-09T14:15:56.991Z,100642.30
2018-02-09T14:18:24.684Z,100637.13
2018-02-09T14:20:52.373Z,100636.08
2018-02-09T14:23:20.238Z,100631.10
2018-02-09T14:25:47.917Z,100635.52
2018-02-09T14:28:15.605Z,100634.03
2018-02-09T14:30:43.838Z,100636.05
2018-02-09T14:33:11.533Z,100634.41
2018-02-09T14:35:39.228Z,100632.61
2018-02-09T14:38:06.959Z,100636.06
2018-02-09T14:40:34.685Z,100632.92
2018-02-09T14:43:02.360Z,100638.38
2018-02-09T14:45:30.170Z,100639.66
2018-02-09T14:47:57.856Z,100634.53
2018-02-09T14:50:25.567Z,100639.87
2018-02-09T14:52:53.253Z,100642.73
2018-02-09T14:55:20.953Z,100642.09
2018-02-09T14:57:48.647Z,100638.44
2018-02-09T15:00:16.391Z,100639.22
2018-02-09T15:02:43.985Z,100631.23
2018-02-09T15:05:11.606Z,100638.08
2018-02-09T15:07:39.198Z,100634.14
2018-02-09T15:10:06.899Z,100639.51
2018-02-09T15:12:34.492Z,100629.14
2018-02-09T15:15:02.118Z,100627.63
2018-02-09T15:17:29.771Z,100633.95
2018-02-09T15:19:57.409Z,100633.80
2018-02-09T15:22:25.110Z,100629.97
2018-02-09T15:24:52.826Z,100626.42
2018-02-09T15:27:20.527Z,100619.19
2018-02-09T15:29:48.241Z,100626.85
2018-02-09T15:32:15.919Z,100621.06
2018-02-09T15:34:43.642Z,100620.77
2018-02-09T15:37:11.317Z,100625.38
2018-02-09T15:39:39.034Z,100630.09
2018-02-09T15:42:06.711Z,100622.48
2018-02-09T15:44:34.419Z,100618.02
2018-02-09T15:47:02.092Z,100619.08
2018-02-09T15:49:29.801Z,100610.86
2018-02-09T15:51:57.510Z,100614.00
2018-02-09T15:54:25.232Z,100615.22
2018-02-09T15:56:52.905Z,100618.13
2018-02-09T15:59:20.752Z,100610.45
2018-02-09T16:01:48.430Z,100618.16
2018-02-09T16:04:16.174Z,100620.16
2018-02-09T16:06:43.885Z,100621.00
2018-02-09T16:09:11.603Z,100621.59
2018-02-09T16:11:39.308Z,100620.19
2018-02-09T16:14:07.009Z,100621.94
2018-02-09T16:16:34.702Z,100618.63
2018-02-09T16:19:02.447Z,100619.45
2018-02-09T16:21:31.389Z,100613.29
2018-02-09T16:23:59.136Z,100621.81
2018-02-09T16:26:26.924Z,100628.14
2018-02-09T16:28:54.696Z,100622.96
2018-02-09T16:31:22.554Z,100626.83
2018-02-09T16:33:50.327Z,100625.82
2018-02-09T16:36:18.093Z,100617.80
2018-02-09T16:38:45.831Z,100617.17
2018-02-09T16:41:13.819Z,100610.00
2018-02-09T16:43:41.542Z,100609.16
2018-02-09T16:46:09.258Z,100606.31
2018-02-09T16:48:36.969Z,100614.66
2018-02-09T16:51:04.686Z,100625.11
2018-02-09T16:53:32.403Z,100626.64
2018-02-09T16:56:00.152Z,100629.80
2018-02-09T16:58:28.246Z,100627.97
2018-02-09T17:00:56.441Z,100631.81
2018-02-09T17:03:24.209Z,100635.88
2018-02-09T17:05:51.974Z,100637.09
2018-02-09T17:08:19.845Z,100633.54
2018-02-09T17:10:47.525Z,100634.75
2018-02-09T17:13:15.248Z,100633.02
2018-02-09T17:15:42.937Z,100637.72
2018-02-09T17:18:10.646Z,100644.53
2018-02-09T17:20:38.776Z,100647.17
2018-02-09T17:23:06.511Z,100642.90
2018-02-09T17:25:34.272Z,100645.74
2018-02-09T17:30:35.350Z,100648.17
2018-02-09T17:33:03.066Z,100641.78
2018-02-09T17:35:30.837Z,100645.33
2018-02-09T17:37:58.593Z,100649.17
2018-02-09T17:40:26.299Z,100650.18
2018-02-09T17:42:54.023Z,100652.92
2018-02-09T17:45:21.690Z,100655.56
2018-02-09T17:47:49.406Z,100653.13
2018-02-09T17:50:17.199Z,100661.37
2018-02-09T17:52:44.930Z,100659.04
2018-02-09T17:55:12.620Z,100659.42
2018-02-09T17:57:40.341Z,100657.51
2018-02-09T18:00:08.046Z,100665.33
2018-02-09T18:02:35.858Z,100668.45
2018-02-09T18:05:03.691Z,100655.56
2018-02-09T18:07:31.713Z,100670.30
2018-02-09T18:09:59.390Z,100663.48
2018-02-09T18:12:27.118Z,100668.38
2018-02-09T18:14:54.915Z,100666.12
2018-02-09T18:17:27.019Z,100668.17
2018-02-09T18:19:54.715Z,100664.53
2018-02-09T18:22:22.442Z,100664.81
2018-02-09T18:24:50.202Z,100666.86
2018-02-09T18:27:17.926Z,100665.13
2018-02-09T18:29:45.622Z,100662.06
2018-02-09T18:32:13.354Z,100664.22
2018-02-09T18:34:41.219Z,100664.42
2018-02-09T18:37:08.897Z,100665.02
2018-02-09T18:39:36.612Z,100669.59
2018-02-09T18:42:04.346Z,100667.66
2018-02-09T18:44:32.035Z,100670.40
2018-02-09T18:46:59.745Z,100674.15
2018-02-09T18:49:27.482Z,100671.50
2018-02-09T18:51:55.257Z,100676.99
2018-02-09T18:54:23.009Z,100674.87
2018-02-09T18:56:50.716Z,100669.98
2018-02-09T18:59:18.476Z,100665.22
2018-02-09T19:01:46.184Z,100670.60
2018-02-09T19:04:13.869Z,100666.12
2018-02-09T19:06:41.836Z,100671.92
2018-02-09T19:09:10.650Z,100670.81
2018-02-09T19:11:38.502Z,100673.03
2018-02-09T19:14:06.221Z,100673.55
2018-02-09T19:16:33.941Z,100670.91
2018-02-09T19:19:01.917Z,100679.11
2018-02-09T19:21:29.801Z,100676.47
2018-02-09T19:23:57.708Z,100673.45
2018-02-09T19:26:25.632Z,100676.36
2018-02-09T19:28:53.341Z,100670.87
2018-02-09T19:31:21.057Z,100683.58
2018-02-09T19:33:48.786Z,100682.27
2018-02-09T19:36:16.614Z,100680.11
2018-02-09T19:38:44.309Z,100682.96
2018-02-09T19:41:12.062Z,100685.02
2018-02-09T19:43:39.748Z,100685.50
2018-02-09T19:46:07.456Z,100691.20
2018-02-09T19:48:35.138Z,100693.42
2018-02-09T19:51:02.939Z,100697.30
2018-02-09T19:53:30.633Z,100697.20
2018-02-09T19:55:58.373Z,100698.80
2018-02-09T19:58:26.071Z,100691.50
2018-02-09T20:00:53.792Z,100690.87
2018-02-09T20:03:21.539Z,100699.22
2018-02-09T20:05:49.359Z,100700.43
2018-02-09T20:08:17.036Z,100699.42
2018-02-09T20:10:44.846Z,100691.09
2018-02-09T20:13:12.571Z,100693.34
2018-02-09T20:15:40.298Z,100692.03
2018-02-09T20:18:07.982Z,100688.86
2018-02-09T20:20:35.785Z,100691.92
2018-02-09T20:23:03.458Z,100692.03
2018-02-09T20:25:31.173Z,100692.62
2018-02-09T20:27:58.856Z,100693.24
2018-02-09T20:30:26.575Z,100688.56
2018-02-09T20:32:54.272Z,100693.63
2018-02-09T20:35:22.025Z,100685.02
2018-02-09T20:37:49.714Z,100689.08
2018-02-09T20:40:17.436Z,100689.98
2018-02-09T20:42:45.113Z,100692.94
2018-02-09T20:45:12.860Z,100683.80
2018-02-09T20:47:40.566Z,100687.64
2018-02-09T20:50:08.402Z,100685.28
2018-02-09T20:52:36.089Z,100695.45
2018-02-09T20:55:03.871Z,100686.91
2018-02-09T20:57:31.678Z,100691.28
2018-02-09T20:59:59.358Z,100685.00
2018-02-09T21:02:27.206Z,100688.33
2018-02-09T21:04:54.906Z,100684.68
2018-02-09T21:07:22.671Z,100685.09
2018-02-09T21:09:50.370Z,100687.11
2018-02-09T21:12:18.229Z,100690.66
2018-02-09T21:14:46.124Z,100687.00
2018-02-09T21:17:13.865Z,100694.23
2018-02-09T21:19:41.546Z,100694.13
2018-02-09T21:22:09.263Z,100703.95
2018-02-09T21:24:36.955Z,100696.66
2018-02-09T21:27:04.674Z,100695.72
2018-02-09T21:29:32.359Z,100696.45
2018-02-09T21:32:00.091Z,100696.14
2018-02-09T21:34:27.795Z,100700.94
2018-02-09T21:36:55.612Z,100703.47
2018-02-09T21:39:23.302Z,100701.31
2018-02-09T21:41:51.030Z,100704.48
2018-02-09T21:44:18.734Z,100696.83
2018-02-09T21:46:46.475Z,100696.34
2018-02-09T21:49:14.189Z,100695.13
2018-02-09T21:51:42.057Z,100688.84
2018-02-09T21:54:09.777Z,100695.02
2018-02-09T21:56:37.516Z,100692.97
2018-02-09T21:59:05.186Z,100689.02
2018-02-09T22:01:32.908Z,100690.75
2018-02-09T22:04:00.605Z,100690.84
2018-02-09T22:06:28.357Z,100697.25
2018-02-09T22:08:56.086Z,100699.89
2018-02-09T22:11:23.807Z,100697.97
2018-02-09T22:13:51.481Z,100694.91
2018-02-09T22:16:19.220Z,100697.97
2018-02-09T22:18:46.911Z,100687.30
2018-02-09T22:21:14.656Z,100692.59
2018-02-09T22:23:42.326Z,100698.25
2018-02-09T22:26:10.030Z,100694.70
2018-02-09T22:28:37.710Z,100694.49
2018-02-09T22:31:05.426Z,100700.89
2018-02-09T22:33:33.139Z,100700.78
2018-02-09T22:36:00.854Z,100707.00
2018-02-09T22:38:28.578Z,100704.95
2018-02-09T22:40:56.418Z,100706.38
2018-02-09T22:43:24.130Z,100702.72
2018-02-09T22:45:51.913Z,100701.30
2018-02-09T22:48:19.593Z,100704.64
2018-02-09T22:50:47.304Z,100705.67
2018-02-09T22:53:15.006Z,100705.05
2018-02-09T22:55:42.717Z,100704.14
2018-02-09T22:58:10.395Z,100703.61
2018-02-09T23:00:38.098Z,100705.04
2018-02-09T23:03:05.791Z,100709.52
2018-02-09T23:05:33.706Z,100703.62
2018-02-09T23:08:01.539Z,100705.77
2018-02-09T23:10:29.243Z,100705.03
2018-02-09T23:12:56.949Z,100710.00
2018-02-09T23:15:24.637Z,100709.09
2018-02-09T23:17:52.430Z,100717.61
2018-02-09T23:20:20.114Z,100719.55
2018-02-09T23:22:47.791Z,100717.91
2018-02-09T23:25:15.595Z,100721.39
2018-02-09T23:27:43.273Z,100718.81
2018-02-09T23:30:11.042Z,100719.85
2018-02-09T23:32:38.778Z,100724.52
2018-02-09T23:35:06.616Z,100718.53
2018-02-09T23:37:34.307Z,100727.57
2018-02-09T23:40:02.007Z,100721.97
2018-02-09T23:42:29.898Z,100722.28
2018-02-09T23:44:57.622Z,100725.03
2018-02-09T23:47:25.318Z,100725.23
2018-02-09T23:49:53.155Z,100724.30
2018-02-09T23:52:20.846Z,100720.75
2018-02-09T23:54:48.669Z,100716.78
2018-02-09T23:57:16.397Z,100720.12
2018-02-09T23:59:44.153Z,100714.66
